Time;durP1;ratioP1;P1;durP2;ratioP2;P2;SDS_P1;SDS_P2;PMS_P1;PMS_P2;Temp;Humidity;BMP_temperature;BMP_pressure;BME280_temperature;BME280_humidity;BME280_pressure;Samples;Min_cycle;Max_cycle;Signal;HPM_P1;HPM_P2
2023/06/07 00:00:27;;;;;;;4.50;3.50;;;18.70;52.70;;;;;;4934672;29;20448;-72
2023/06/07 00:02:53;;;;;;;3.40;3.10;;;18.70;52.20;;;;;;4935141;29;20408;-73
2023/06/07 00:05:21;;;;;;;4.03;3.63;;;18.70;52.20;;;;;;4923609;29;20288;-73
2023/06/07 00:07:47;;;;;;;4.63;3.87;;;18.70;52.30;;;;;;4928440;29;20261;-72
2023/06/07 00:10:12;;;;;;;4.57;3.77;;;18.70;52.40;;;;;;4941341;29;20469;-71
2023/06/07 00:12:38;;;;;;;4.53;3.30;;;18.70;52.50;;;;;;4932731;29;20284;-71
2023/06/07 00:15:05;;;;;;;4.30;3.90;;;18.70;52.60;;;;;;4922850;29;20193;-71
2023/06/07 00:17:30;;;;;;;4.80;3.70;;;18.80;52.80;;;;;;4923602;29;20216;-71
2023/06/07 00:19:56;;;;;;;7.30;5.33;;;18.90;52.80;;;;;;4933179;29;20438;-70
2023/06/07 00:22:22;;;;;;;5.13;4.67;;;19.00;53.10;;;;;;4922947;29;20625;-72
2023/06/07 00:24:51;;;;;;;4.60;4.10;;;19.10;53.10;;;;;;4922780;29;20835;-72
2023/06/07 00:27:17;;;;;;;4.83;4.37;;;19.10;53.20;;;;;;4922476;29;20598;-71
2023/06/07 00:29:42;;;;;;;5.73;4.50;;;19.10;53.30;;;;;;4923931;29;20488;-72
2023/06/07 00:32:08;;;;;;;5.20;3.80;;;19.20;53.50;;;;;;4934557;29;20225;-72
2023/06/07 00:34:33;;;;;;;5.03;3.90;;;19.10;53.60;;;;;;4936059;29;20251;-71
2023/06/07 00:36:59;;;;;;;6.27;4.47;;;19.10;53.70;;;;;;4908277;29;20197;-72
2023/06/07 00:39:25;;;;;;;4.63;4.13;;;19.10;53.80;;;;;;4921526;29;20206;-71
2023/06/07 00:41:52;;;;;;;5.70;4.60;;;19.10;54.00;;;;;;4925035;29;20856;-71
2023/06/07 00:44:18;;;;;;;5.33;4.30;;;19.00;54.10;;;;;;4935259;29;20202;-70
2023/06/07 00:46:45;;;;;;;6.00;3.63;;;19.00;54.40;;;;;;4905568;29;20429;-72
2023/06/07 00:49:16;;;;;;;5.20;3.70;;;19.00;54.60;;;;;;4919362;29;20449;-72
2023/06/07 00:51:42;;;;;;;6.40;4.10;;;19.00;54.70;;;;;;4927222;29;20222;-73
2023/06/07 00:54:08;;;;;;;5.30;3.80;;;19.00;55.00;;;;;;4921575;29;20426;-71
2023/06/07 00:56:35;;;;;;;6.97;3.97;;;18.90;55.10;;;;;;4905111;29;20414;-72
2023/06/07 00:59:02;;;;;;;5.70;4.70;;;18.90;55.50;;;;;;4904628;29;20906;-71
2023/06/07 01:01:28;;;;;;;5.73;4.43;;;18.90;55.80;;;;;;4923007;29;20437;-71
2023/06/07 01:03:53;;;;;;;5.77;3.93;;;18.90;56.00;;;;;;4928510;29;20435;-70
2023/06/07 01:06:22;;;;;;;5.90;4.40;;;18.80;56.10;;;;;;4922000;29;20225;-72
2023/06/07 01:08:49;;;;;;;4.23;3.83;;;18.80;56.40;;;;;;4921918;29;20326;-71
2023/06/07 01:11:15;;;;;;;8.00;4.60;;;18.70;56.60;;;;;;4947348;28;20591;-72
2023/06/07 01:13:42;;;;;;;5.80;4.50;;;18.60;56.90;;;;;;4932142;29;20425;-71
2023/06/07 01:16:08;;;;;;;10.13;6.50;;;18.70;57.50;;;;;;4923840;29;20432;-76
2023/06/07 01:18:37;;;;;;;5.47;4.93;;;18.70;57.90;;;;;;4945216;29;20428;-74
2023/06/07 01:21:06;;;;;;;15.00;4.80;;;18.60;58.10;;;;;;4955760;29;20468;-72
2023/06/07 01:23:33;;;;;;;7.27;4.90;;;18.60;58.50;;;;;;4940468;29;20430;-72
2023/06/07 01:26:00;;;;;;;5.00;4.50;;;18.60;58.90;;;;;;4930109;29;20424;-72
2023/06/07 01:28:30;;;;;;;5.87;4.83;;;18.50;59.40;;;;;;4942173;29;20440;-72
2023/06/07 01:30:58;;;;;;;5.80;5.10;;;18.40;60.10;;;;;;4956861;29;20491;-73
2023/06/07 01:33:24;;;;;;;6.37;4.77;;;18.40;61.10;;;;;;4959201;29;20479;-72
2023/06/07 01:35:52;;;;;;;8.97;5.80;;;18.40;61.80;;;;;;4947615;29;20425;-71
2023/06/07 01:38:20;;;;;;;8.20;5.53;;;18.40;63.50;;;;;;4949785;29;20517;-72
2023/06/07 01:40:47;;;;;;;11.17;5.57;;;18.40;64.60;;;;;;4945965;29;20465;-71
2023/06/07 01:43:14;;;;;;;6.00;5.37;;;18.40;65.20;;;;;;4946876;29;20411;-71
2023/06/07 01:45:41;;;;;;;8.70;5.80;;;18.40;66.00;;;;;;4952270;29;20430;-72
2023/06/07 01:48:08;;;;;;;7.53;6.73;;;18.40;67.50;;;;;;4945665;29;20433;-70
2023/06/07 01:50:33;;;;;;;9.20;5.80;;;18.40;68.90;;;;;;4954477;29;20472;-71
2023/06/07 01:52:59;;;;;;;7.60;5.97;;;18.40;70.20;;;;;;4924582;29;20412;-73
2023/06/07 01:55:26;;;;;;;7.87;7.17;;;18.50;71.20;;;;;;4953153;29;20270;-74
2023/06/07 01:58:20;;;;;;;9.30;6.20;;;18.50;73.00;;;;;;4959444;29;20195;-72
2023/06/07 02:01:18;;;;;;;7.30;6.17;;;18.50;74.10;;;;;;4941660;29;20483;-72
2023/06/07 02:03:49;;;;;;;8.37;5.90;;;18.40;75.40;;;;;;4921817;29;20448;-72
2023/06/07 02:06:29;;;;;;;7.57;6.10;;;18.50;77.60;;;;;;4924449;29;20523;-72
2023/06/07 02:08:57;;;;;;;6.90;5.70;;;18.50;78.80;;;;;;4949622;29;20450;-71
2023/06/07 02:11:24;;;;;;;11.07;7.00;;;18.50;80.10;;;;;;4922378;29;20492;-72
2023/06/07 02:13:50;;;;;;;7.70;5.67;;;18.50;81.70;;;;;;4950064;29;20427;-72
2023/06/07 02:16:16;;;;;;;9.40;6.87;;;18.60;82.80;;;;;;4950259;29;20425;-71
2023/06/07 02:18:41;;;;;;;8.40;6.33;;;18.60;82.70;;;;;;4927133;29;20433;-70
2023/06/07 02:21:10;;;;;;;11.70;6.80;;;18.70;83.40;;;;;;4956447;28;20445;-71
2023/06/07 02:23:37;;;;;;;9.47;6.90;;;18.80;83.50;;;;;;4938974;29;20200;-70
2023/06/07 02:26:03;;;;;;;7.73;5.73;;;18.80;83.70;;;;;;4922113;29;20504;-72
2023/06/07 02:28:28;;;;;;;7.93;6.97;;;18.80;84.20;;;;;;4939396;29;20488;-72
2023/06/07 02:30:57;;;;;;;11.43;6.47;;;18.70;84.50;;;;;;4935122;29;20454;-72
2023/06/07 02:33:24;;;;;;;6.57;5.87;;;18.80;85.20;;;;;;4937989;29;20195;-72
2023/06/07 02:35:50;;;;;;;9.10;6.50;;;18.70;85.90;;;;;;4936134;29;20415;-72
2023/06/07 02:38:15;;;;;;;6.50;5.27;;;18.70;86.60;;;;;;4958755;29;20212;-71
2023/06/07 02:40:41;;;;;;;6.27;5.47;;;18.70;87.00;;;;;;4925403;29;20221;-71
2023/06/07 02:43:07;;;;;;;9.03;6.33;;;18.70;87.50;;;;;;4953272;29;20597;-71
2023/06/07 02:45:32;;;;;;;8.00;5.60;;;18.70;88.30;;;;;;4959090;29;20188;-71
2023/06/07 02:47:58;;;;;;;8.90;6.20;;;18.60;88.70;;;;;;4951994;29;20288;-71
2023/06/07 02:50:24;;;;;;;6.90;5.47;;;18.60;89.00;;;;;;4951436;29;20227;-71
2023/06/07 02:52:52;;;;;;;8.00;6.30;;;18.60;90.00;;;;;;4922067;29;20562;-71
2023/06/07 02:55:17;;;;;;;8.57;7.13;;;18.60;90.00;;;;;;4923147;29;20496;-70
2023/06/07 02:57:43;;;;;;;10.00;7.07;;;18.60;90.30;;;;;;4939171;29;20570;-71
2023/06/07 03:00:13;;;;;;;7.63;6.00;;;18.60;90.40;;;;;;4921341;29;20200;-72
2023/06/07 03:02:49;;;;;;;8.23;5.80;;;18.60;90.70;;;;;;4949767;29;20416;-72
2023/06/07 03:05:15;;;;;;;7.50;6.57;;;18.50;91.00;;;;;;4939681;29;20428;-71
2023/06/07 03:07:45;;;;;;;8.10;6.43;;;18.50;91.60;;;;;;4923307;29;20891;-71
2023/06/07 03:10:12;;;;;;;7.17;6.03;;;18.50;92.00;;;;;;4933006;29;20451;-71
2023/06/07 03:12:38;;;;;;;6.10;5.50;;;18.50;92.50;;;;;;4957610;29;20462;-71
2023/06/07 03:15:07;;;;;;;6.97;5.83;;;18.40;92.70;;;;;;4925864;29;20435;-71
2023/06/07 03:17:34;;;;;;;10.90;5.97;;;18.40;93.30;;;;;;4921557;29;20746;-71
2023/06/07 03:20:00;;;;;;;8.07;5.27;;;18.40;93.50;;;;;;4935423;29;20479;-72
2023/06/07 03:22:28;;;;;;;7.43;5.57;;;18.40;93.80;;;;;;4956457;29;20191;-71
2023/06/07 03:24:57;;;;;;;7.80;6.43;;;18.30;94.00;;;;;;4924423;29;21046;-72
2023/06/07 03:27:23;;;;;;;6.20;5.40;;;18.30;94.40;;;;;;4940725;29;20475;-72
2023/06/07 03:29:51;;;;;;;10.00;6.50;;;18.30;94.70;;;;;;4926327;29;20446;-72
2023/06/07 03:32:19;;;;;;;8.37;6.17;;;18.30;95.10;;;;;;4939048;29;20514;-72
2023/06/07 03:34:45;;;;;;;7.87;6.60;;;18.20;95.30;;;;;;4926342;29;20435;-71
2023/06/07 03:37:12;;;;;;;8.10;5.83;;;18.30;96.00;;;;;;4921338;29;20414;-72
2023/06/07 03:39:38;;;;;;;6.43;4.90;;;18.20;96.00;;;;;;4939201;29;20533;-71
2023/06/07 03:42:06;;;;;;;8.80;6.20;;;18.20;96.20;;;;;;4939775;29;20472;-71
2023/06/07 03:44:31;;;;;;;10.10;7.97;;;18.20;96.40;;;;;;4956701;29;20184;-72
2023/06/07 03:46:57;;;;;;;12.70;8.07;;;18.20;97.00;;;;;;4956995;29;20740;-70
2023/06/07 03:49:25;;;;;;;12.37;7.33;;;18.20;97.30;;;;;;4938441;29;20212;-72
2023/06/07 03:51:51;;;;;;;10.63;7.30;;;18.20;97.50;;;;;;4956466;29;20493;-71
2023/06/07 03:54:17;;;;;;;13.00;7.13;;;18.10;98.00;;;;;;4957090;29;20199;-72
2023/06/07 03:56:43;;;;;;;8.87;7.33;;;18.10;98.50;;;;;;4930176;29;20213;-71
2023/06/07 03:59:12;;;;;;;9.00;6.00;;;18.10;99.00;;;;;;4921887;29;20529;-71
2023/06/07 04:01:40;;;;;;;10.77;7.70;;;18.10;99.10;;;;;;4922729;29;20422;-72
2023/06/07 04:04:08;;;;;;;8.20;5.83;;;18.00;99.30;;;;;;4945931;29;20490;-72
2023/06/07 04:06:34;;;;;;;6.40;5.70;;;18.00;99.50;;;;;;4944666;29;20434;-72
2023/06/07 04:09:02;;;;;;;9.77;6.10;;;18.00;99.60;;;;;;4950662;29;20921;-72
2023/06/07 04:11:28;;;;;;;7.00;5.50;;;18.00;99.70;;;;;;4925820;29;20562;-71
2023/06/07 04:13:54;;;;;;;8.03;6.87;;;18.00;99.80;;;;;;4939409;29;20773;-72
2023/06/07 04:16:23;;;;;;;8.83;6.30;;;18.10;99.90;;;;;;4919176;29;20425;-72
2023/06/07 04:18:50;;;;;;;8.83;6.23;;;18.10;99.90;;;;;;4923145;29;20444;-72
2023/06/07 04:21:16;;;;;;;11.47;7.50;;;18.10;99.90;;;;;;4924078;29;20889;-72
2023/06/07 04:23:44;;;;;;;11.23;7.80;;;18.10;99.90;;;;;;4933979;29;20426;-72
2023/06/07 04:26:18;;;;;;;7.90;5.73;;;18.20;99.90;;;;;;4917579;29;20425;-72
2023/06/07 04:28:45;;;;;;;13.00;7.37;;;18.10;99.90;;;;;;4930953;29;20679;-73
2023/06/07 04:31:12;;;;;;;10.07;6.47;;;18.20;99.90;;;;;;4954016;29;20458;-71
2023/06/07 04:33:39;;;;;;;14.83;9.03;;;18.20;99.90;;;;;;4950432;29;21245;-72
2023/06/07 04:36:08;;;;;;;11.50;7.17;;;18.10;99.90;;;;;;4923271;29;20428;-73
2023/06/07 04:38:41;;;;;;;9.77;7.50;;;18.10;99.90;;;;;;4918031;29;20480;-72
2023/06/07 04:41:08;;;;;;;13.97;6.90;;;18.10;99.90;;;;;;4925683;29;20446;-71
2023/06/07 04:43:38;;;;;;;8.50;6.53;;;18.10;99.90;;;;;;4936655;29;20425;-72
2023/06/07 04:46:09;;;;;;;9.57;6.97;;;18.10;99.90;;;;;;4939872;29;20427;-73
2023/06/07 04:48:41;;;;;;;9.47;6.93;;;18.10;99.90;;;;;;4938745;29;20711;-72
2023/06/07 04:51:07;;;;;;;9.07;7.00;;;18.10;99.90;;;;;;4940770;29;20559;-72
2023/06/07 04:53:42;;;;;;;9.77;7.17;;;18.10;99.90;;;;;;4955548;29;20415;-74
2023/06/07 04:56:11;;;;;;;12.03;6.87;;;18.10;99.90;;;;;;4956008;29;20689;-71
2023/06/07 04:58:39;;;;;;;11.47;8.27;;;18.10;99.90;;;;;;4939323;29;20497;-73
2023/06/07 05:01:04;;;;;;;10.30;7.07;;;18.10;99.90;;;;;;4949228;29;20427;-71
2023/06/07 05:03:32;;;;;;;12.63;7.30;;;18.10;99.90;;;;;;4959362;29;20432;-72
2023/06/07 05:06:00;;;;;;;9.77;7.30;;;18.10;99.90;;;;;;4964171;29;20802;-73
2023/06/07 05:08:27;;;;;;;8.03;6.20;;;18.10;99.90;;;;;;4963290;29;20410;-73
2023/06/07 05:10:54;;;;;;;12.97;7.47;;;18.10;99.90;;;;;;4962368;29;20577;-74
2023/06/07 05:13:20;;;;;;;8.07;7.10;;;18.10;99.90;;;;;;4934930;29;20425;-73
2023/06/07 05:15:50;;;;;;;10.10;6.90;;;18.20;99.90;;;;;;4929281;29;20905;-75
2023/06/07 05:18:19;;;;;;;12.87;6.73;;;18.10;99.90;;;;;;4930994;29;20216;-73
2023/06/07 05:20:49;;;;;;;11.70;7.00;;;18.10;99.90;;;;;;4939654;29;20440;-73
2023/06/07 05:23:17;;;;;;;14.53;6.73;;;18.20;99.90;;;;;;4929252;29;20431;-72
2023/06/07 05:25:46;;;;;;;9.17;6.80;;;18.20;99.90;;;;;;4915045;29;20451;-74
2023/06/07 05:28:13;;;;;;;9.10;6.00;;;18.20;99.90;;;;;;4933836;29;20689;-75
2023/06/07 05:30:41;;;;;;;10.57;6.20;;;18.20;99.90;;;;;;4932680;29;20466;-75
2023/06/07 05:33:07;;;;;;;9.63;7.10;;;18.20;99.90;;;;;;4932362;29;20575;-74
2023/06/07 05:35:34;;;;;;;8.10;6.30;;;18.30;99.60;;;;;;4949461;29;20187;-73
2023/06/07 05:38:01;;;;;;;12.73;7.47;;;18.30;99.30;;;;;;4949396;29;20840;-73
2023/06/07 05:40:28;;;;;;;10.23;7.70;;;18.40;98.80;;;;;;4948990;29;20522;-76
2023/06/07 05:42:56;;;;;;;7.07;5.90;;;18.30;98.70;;;;;;4931386;29;20197;-76
2023/06/07 05:45:22;;;;;;;11.77;6.60;;;18.30;98.80;;;;;;4963980;29;20416;-75
2023/06/07 05:47:49;;;;;;;8.70;6.63;;;18.30;98.90;;;;;;4949203;29;20432;-72
2023/06/07 05:50:16;;;;;;;7.17;5.90;;;18.30;98.90;;;;;;4948105;29;20441;-73
2023/06/07 05:52:44;;;;;;;7.43;6.23;;;18.30;98.80;;;;;;4946309;29;20413;-77
2023/06/07 05:55:10;;;;;;;12.10;8.50;;;18.30;98.90;;;;;;4934620;28;20450;-75
2023/06/07 05:57:36;;;;;;;10.97;7.63;;;18.30;99.00;;;;;;4949228;29;20260;-76
2023/06/07 06:00:11;;;;;;;7.87;6.17;;;18.20;98.90;;;;;;4949735;29;20451;-74
2023/06/07 06:02:38;;;;;;;9.83;6.20;;;18.20;99.00;;;;;;4968287;29;20425;-74
2023/06/07 06:05:06;;;;;;;12.87;7.13;;;18.20;99.20;;;;;;4919417;29;20416;-74
2023/06/07 06:07:32;;;;;;;15.77;8.10;;;18.20;99.30;;;;;;4948354;29;20415;-75
2023/06/07 06:09:57;;;;;;;7.40;6.43;;;18.30;99.10;;;;;;4959971;29;20459;-74
2023/06/07 06:12:23;;;;;;;9.93;6.83;;;18.30;99.10;;;;;;4965951;29;20560;-74
2023/06/07 06:14:48;;;;;;;9.90;6.80;;;18.20;99.00;;;;;;4934920;29;20198;-74
2023/06/07 06:17:14;;;;;;;9.07;7.30;;;18.30;99.30;;;;;;4931438;29;20549;-74
2023/06/07 06:19:41;;;;;;;10.60;7.60;;;18.20;98.90;;;;;;4947086;29;20667;-74
2023/06/07 06:22:06;;;;;;;9.17;6.07;;;18.30;99.30;;;;;;4948298;29;20185;-75
2023/06/07 06:24:32;;;;;;;13.93;8.90;;;18.30;99.10;;;;;;4961848;29;20458;-74
2023/06/07 06:26:58;;;;;;;9.73;5.77;;;18.30;99.20;;;;;;4967801;29;20569;-75
2023/06/07 06:29:24;;;;;;;7.27;5.90;;;18.30;99.30;;;;;;4964548;29;20542;-74
2023/06/07 06:31:51;;;;;;;11.97;5.47;;;18.40;99.00;;;;;;4934060;29;20248;-75
2023/06/07 06:34:18;;;;;;;8.63;6.80;;;18.40;98.60;;;;;;4925664;29;20434;-74
2023/06/07 06:36:46;;;;;;;16.50;6.97;;;18.50;98.20;;;;;;4952835;29;20153;-76
2023/06/07 06:39:14;;;;;;;7.67;6.87;;;18.50;98.10;;;;;;4937551;29;20489;-75
2023/06/07 06:41:39;;;;;;;18.27;8.40;;;18.50;97.80;;;;;;4895180;29;20449;-78
2023/06/07 06:44:08;;;;;;;8.00;5.70;;;18.60;97.60;;;;;;4929063;29;20189;-77
2023/06/07 06:46:34;;;;;;;9.80;6.57;;;18.60;97.60;;;;;;4913596;29;20534;-76
2023/06/07 06:48:59;;;;;;;11.60;7.47;;;18.60;97.10;;;;;;4932673;29;20566;-74
2023/06/07 06:51:25;;;;;;;9.00;6.07;;;18.70;96.40;;;;;;4929792;29;20518;-76
2023/06/07 06:53:51;;;;;;;12.03;7.27;;;18.70;95.90;;;;;;4914093;29;20206;-76
2023/06/07 06:56:16;;;;;;;9.60;6.53;;;18.80;95.50;;;;;;4910893;29;20502;-76
2023/06/07 06:58:42;;;;;;;12.17;6.07;;;18.80;95.20;;;;;;4935497;29;20574;-74
2023/06/07 07:01:13;;;;;;;10.80;7.27;;;18.80;95.00;;;;;;4947215;29;20198;-76
2023/06/07 07:03:40;;;;;;;11.00;6.60;;;18.80;94.30;;;;;;4947375;29;20204;-75
2023/06/07 07:06:07;;;;;;;6.03;5.43;;;18.80;94.60;;;;;;4913250;29;20458;-73
2023/06/07 07:08:34;;;;;;;11.03;6.07;;;18.90;94.70;;;;;;4913111;29;20430;-74
2023/06/07 07:11:00;;;;;;;11.23;6.60;;;18.90;94.70;;;;;;4921703;29;20488;-76
2023/06/07 07:13:25;;;;;;;10.80;5.17;;;19.00;94.10;;;;;;4949978;29;20434;-75
2023/06/07 07:15:51;;;;;;;8.97;6.40;;;19.00;94.00;;;;;;4983523;28;20215;-74
2023/06/07 07:18:17;;;;;;;10.90;6.83;;;19.00;94.00;;;;;;4948392;29;20220;-74
2023/06/07 07:20:43;;;;;;;9.83;7.13;;;18.90;94.30;;;;;;4929157;29;20213;-74
2023/06/07 07:23:08;;;;;;;12.30;7.33;;;18.90;94.70;;;;;;4967720;29;20572;-75
2023/06/07 07:25:34;;;;;;;12.70;8.33;;;18.90;95.00;;;;;;4968290;29;20196;-75
2023/06/07 07:28:00;;;;;;;10.27;5.73;;;18.90;95.10;;;;;;4933021;29;20181;-76
2023/06/07 07:30:26;;;;;;;12.27;6.67;;;18.90;95.60;;;;;;4935382;29;20222;-77
2023/06/07 07:32:53;;;;;;;11.73;6.47;;;18.90;96.30;;;;;;4952327;29;20168;-74
2023/06/07 07:35:19;;;;;;;11.53;7.50;;;18.90;96.70;;;;;;4959389;28;20180;-77
2023/06/07 07:37:44;;;;;;;12.50;7.80;;;18.90;96.90;;;;;;4954205;29;20463;-74
2023/06/07 07:40:12;;;;;;;10.17;7.23;;;19.00;97.50;;;;;;4967932;29;20761;-78
2023/06/07 07:42:38;;;;;;;11.67;7.10;;;19.00;98.00;;;;;;4952148;29;20189;-77
2023/06/07 07:45:05;;;;;;;9.03;7.40;;;18.90;99.40;;;;;;4970098;29;20919;-77
2023/06/07 07:47:31;;;;;;;8.63;7.03;;;18.90;99.50;;;;;;4937840;29;20190;-74
2023/06/07 07:49:56;;;;;;;12.37;7.93;;;19.00;99.90;;;;;;4942900;29;20456;-76
2023/06/07 07:52:24;;;;;;;12.47;6.23;;;19.10;99.40;;;;;;4948133;29;20616;-78
2023/06/07 07:54:50;;;;;;;13.57;8.87;;;19.20;99.10;;;;;;4952267;29;20443;-77
2023/06/07 07:57:15;;;;;;;8.70;6.80;;;19.30;98.50;;;;;;4966066;29;20173;-75
2023/06/07 07:59:41;;;;;;;9.23;7.50;;;19.40;98.20;;;;;;4942979;29;20276;-75
2023/06/07 08:02:07;;;;;;;8.77;7.20;;;19.60;97.40;;;;;;4949932;29;20683;-75
2023/06/07 08:04:32;;;;;;;7.97;7.13;;;19.70;96.90;;;;;;4966943;29;20485;-76
2023/06/07 08:06:58;;;;;;;9.47;7.17;;;19.80;96.30;;;;;;4967775;29;20185;-75
2023/06/07 08:09:23;;;;;;;14.50;9.80;;;19.90;95.70;;;;;;4965362;29;20196;-73
2023/06/07 08:11:49;;;;;;;11.63;8.37;;;19.80;95.90;;;;;;4918616;29;20285;-77
2023/06/07 08:14:15;;;;;;;14.43;9.43;;;19.90;95.90;;;;;;4916977;29;20189;-75
2023/06/07 08:16:41;;;;;;;11.87;7.97;;;20.00;95.50;;;;;;4947980;29;20480;-76
2023/06/07 08:19:07;;;;;;;8.23;6.47;;;20.00;96.00;;;;;;4945072;29;20436;-73
2023/06/07 08:21:33;;;;;;;9.20;6.80;;;20.20;95.50;;;;;;4934498;29;20201;-75
2023/06/07 08:23:59;;;;;;;7.77;6.13;;;20.30;94.90;;;;;;4970499;29;20537;-76
2023/06/07 08:26:25;;;;;;;12.00;8.47;;;20.50;94.10;;;;;;4952944;29;20429;-74
2023/06/07 08:28:51;;;;;;;11.33;7.50;;;20.70;92.70;;;;;;4936645;29;20451;-75
2023/06/07 08:31:22;;;;;;;12.67;8.03;;;20.80;92.30;;;;;;4917971;29;20909;-78
2023/06/07 08:33:48;;;;;;;9.40;7.37;;;21.00;91.10;;;;;;4950427;29;20245;-73
2023/06/07 08:36:14;;;;;;;10.10;8.33;;;21.20;89.20;;;;;;4933268;29;20876;-75
2023/06/07 08:38:41;;;;;;;12.93;8.80;;;21.30;87.40;;;;;;4938312;29;20190;-78
2023/06/07 08:41:07;;;;;;;11.53;9.10;;;21.40;87.90;;;;;;4919333;29;20485;-76
2023/06/07 08:43:35;;;;;;;9.80;8.23;;;21.40;86.30;;;;;;4951443;29;20440;-77
2023/06/07 08:46:04;;;;;;;12.80;9.27;;;21.60;85.70;;;;;;4950811;29;20437;-74
2023/06/07 08:48:35;;;;;;;11.50;7.43;;;21.80;80.10;;;;;;4916121;29;20442;-74
2023/06/07 08:51:02;;;;;;;10.07;9.07;;;21.90;79.70;;;;;;4940181;29;20496;-76
2023/06/07 08:53:37;;;;;;;11.40;8.97;;;22.10;78.20;;;;;;4939059;29;20472;-76
2023/06/07 08:56:03;;;;;;;10.90;6.57;;;22.20;77.90;;;;;;4951764;29;20689;-77
2023/06/07 08:58:31;;;;;;;12.53;9.73;;;22.50;75.80;;;;;;4952159;29;20416;-76
2023/06/07 09:00:59;;;;;;;16.60;9.00;;;22.80;72.20;;;;;;4970906;29;20455;-77
2023/06/07 09:03:27;;;;;;;10.70;9.60;;;22.90;70.30;;;;;;4938899;29;20433;-76
2023/06/07 09:05:55;;;;;;;10.47;6.73;;;23.00;69.90;;;;;;4937490;29;20475;-77
2023/06/07 09:08:21;;;;;;;7.90;7.20;;;23.00;70.60;;;;;;4952651;29;20537;-77
2023/06/07 09:10:47;;;;;;;8.93;7.30;;;23.40;67.80;;;;;;4963887;28;20896;-78
2023/06/07 09:13:20;;;;;;;10.33;7.40;;;23.50;64.90;;;;;;4973449;28;20192;-77
2023/06/07 09:15:49;;;;;;;8.57;7.40;;;23.70;63.10;;;;;;4979100;28;20444;-76
2023/06/07 09:18:15;;;;;;;8.37;6.87;;;23.80;62.00;;;;;;4966825;29;20420;-77
2023/06/07 09:20:41;;;;;;;9.87;8.20;;;23.80;61.20;;;;;;4948782;29;20523;-75
2023/06/07 09:23:14;;;;;;;9.20;8.00;;;23.70;61.60;;;;;;4969778;29;20395;-76
2023/06/07 09:25:44;;;;;;;12.17;7.80;;;23.60;60.80;;;;;;4942506;29;20190;-77
2023/06/07 09:28:14;;;;;;;10.80;8.90;;;23.20;62.00;;;;;;4951699;29;20425;-77
2023/06/07 09:30:56;;;;;;;8.00;7.13;;;23.30;63.30;;;;;;4942923;29;20483;-77
2023/06/07 09:33:29;;;;;;;9.53;8.63;;;23.20;61.80;;;;;;4955702;29;20424;-77
2023/06/07 09:36:13;;;;;;;11.17;8.10;;;23.20;63.60;;;;;;4939173;29;20408;-76
2023/06/07 09:38:39;;;;;;;7.80;7.00;;;23.30;60.80;;;;;;4953943;29;20424;-76
2023/06/07 09:41:06;;;;;;;11.10;8.03;;;23.50;59.80;;;;;;4948739;29;20421;-76
2023/06/07 09:43:54;;;;;;;13.80;8.37;;;23.60;59.00;;;;;;4971841;29;20533;-79
2023/06/07 09:46:20;;;;;;;7.90;7.03;;;23.80;58.40;;;;;;4920909;29;20417;-78
2023/06/07 09:48:51;;;;;;;11.60;8.40;;;23.70;58.50;;;;;;4924349;29;20537;-78
2023/06/07 09:51:18;;;;;;;15.13;8.60;;;23.60;58.90;;;;;;4955821;29;20449;-74
2023/06/07 09:53:52;;;;;;;11.47;8.60;;;23.40;59.80;;;;;;4954045;29;20711;-78
2023/06/07 09:56:21;;;;;;;11.80;8.43;;;23.20;61.80;;;;;;4952782;29;20429;-76
2023/06/07 09:58:49;;;;;;;9.20;7.43;;;23.30;62.10;;;;;;4954439;29;20516;-74
2023/06/07 10:01:32;;;;;;;11.97;8.60;;;23.30;62.60;;;;;;4939133;29;20425;-78
2023/06/07 10:04:00;;;;;;;11.80;10.23;;;23.20;62.50;;;;;;4955956;29;20421;-78
2023/06/07 10:06:27;;;;;;;11.37;8.60;;;23.20;61.20;;;;;;4954447;29;20432;-77
2023/06/07 10:08:55;;;;;;;15.13;9.73;;;23.00;62.70;;;;;;4955810;29;20529;-77
2023/06/07 10:11:22;;;;;;;13.40;9.00;;;22.80;64.70;;;;;;4939485;29;20480;-78
2023/06/07 10:13:47;;;;;;;14.53;10.50;;;22.70;66.00;;;;;;4959466;29;20409;-76
2023/06/07 10:16:15;;;;;;;11.57;10.17;;;22.60;67.10;;;;;;4970635;29;20416;-78
2023/06/07 10:18:42;;;;;;;12.50;9.83;;;22.60;67.80;;;;;;4954626;29;20203;-75
2023/06/07 10:21:19;;;;;;;13.90;9.07;;;22.50;68.30;;;;;;4956860;29;20417;-78
2023/06/07 10:23:52;;;;;;;10.80;9.70;;;22.40;70.50;;;;;;4940360;29;20429;-76
2023/06/07 10:26:52;;;;;;;10.93;9.83;;;22.60;69.80;;;;;;4938252;29;20760;-77
2023/06/07 10:29:28;;;;;;;11.30;10.20;;;22.60;69.10;;;;;;4955288;29;21020;-79
2023/06/07 10:32:06;;;;;;;11.87;10.00;;;22.40;71.50;;;;;;4940419;29;20872;-78
2023/06/07 10:34:32;;;;;;;14.70;10.30;;;22.30;72.20;;;;;;4971630;29;20496;-75
2023/06/07 10:37:01;;;;;;;14.07;10.73;;;22.40;71.10;;;;;;4948430;29;20401;-77
2023/06/07 10:39:27;;;;;;;14.13;10.67;;;22.50;71.60;;;;;;4971947;29;20440;-74
2023/06/07 10:41:53;;;;;;;12.97;8.30;;;22.50;71.70;;;;;;4956168;29;20444;-77
2023/06/07 10:44:19;;;;;;;12.37;9.40;;;22.40;72.70;;;;;;4940664;29;20295;-77
2023/06/07 10:46:45;;;;;;;11.03;9.60;;;22.40;72.70;;;;;;4955081;29;20420;-77
2023/06/07 10:49:36;;;;;;;15.10;12.27;;;22.20;74.40;;;;;;4946994;29;20484;-77
2023/06/07 10:52:03;;;;;;;14.03;9.37;;;22.20;74.40;;;;;;4947009;28;20208;-76
2023/06/07 10:54:35;;;;;;;12.00;10.20;;;22.20;76.00;;;;;;4963086;29;20424;-78
2023/06/07 10:57:04;;;;;;;13.40;11.07;;;22.50;73.90;;;;;;4935349;29;20513;-77
2023/06/07 10:59:30;;;;;;;9.33;8.37;;;22.60;71.90;;;;;;4944475;29;20473;-76
2023/06/07 11:02:22;;;;;;;13.43;10.73;;;22.60;72.80;;;;;;4972708;29;20421;-77
2023/06/07 11:04:48;;;;;;;14.33;10.50;;;22.80;70.70;;;;;;4955603;29;20185;-77
2023/06/07 11:07:30;;;;;;;12.10;10.10;;;22.90;68.50;;;;;;4956344;29;20859;-77
2023/06/07 11:10:04;;;;;;;19.37;12.53;;;22.70;69.60;;;;;;4940546;29;20247;-78
2023/06/07 11:12:44;;;;;;;14.40;11.73;;;22.40;72.10;;;;;;4941077;29;20475;-77
2023/06/07 11:15:36;;;;;;;15.67;13.60;;;22.30;74.10;;;;;;4956295;29;20439;-76
2023/06/07 11:18:08;;;;;;;18.37;12.73;;;22.20;75.10;;;;;;4940930;29;20448;-77
2023/06/07 11:20:36;;;;;;;14.00;12.27;;;22.20;75.60;;;;;;4971579;29;20441;-77
2023/06/07 11:23:24;;;;;;;15.83;13.20;;;22.10;77.00;;;;;;4941621;29;20448;-78
2023/06/07 11:26:06;;;;;;;12.17;10.67;;;22.10;79.00;;;;;;4957086;29;20428;-77
2023/06/07 11:28:37;;;;;;;17.20;15.00;;;22.30;76.40;;;;;;4954373;29;20417;-77
2023/06/07 11:31:03;;;;;;;15.20;13.07;;;22.20;76.80;;;;;;4967937;29;20745;-75
2023/06/07 11:33:30;;;;;;;17.50;13.30;;;22.00;80.00;;;;;;4936606;29;20414;-78
2023/06/07 11:35:56;;;;;;;13.07;11.90;;;21.90;81.90;;;;;;4933091;29;20923;-77
2023/06/07 11:38:24;;;;;;;20.00;15.40;;;21.90;83.90;;;;;;4955809;29;20844;-76
2023/06/07 11:40:53;;;;;;;18.90;14.00;;;21.90;84.50;;;;;;4956488;29;20432;-77
2023/06/07 11:43:31;;;;;;;15.10;13.57;;;22.10;84.80;;;;;;4963040;28;20442;-77
2023/06/07 11:45:58;;;;;;;18.10;15.70;;;22.40;80.50;;;;;;4979301;28;20447;-77
2023/06/07 11:48:27;;;;;;;14.17;12.60;;;22.60;78.10;;;;;;4954268;29;20436;-77
2023/06/07 11:50:53;;;;;;;17.50;15.57;;;22.50;79.40;;;;;;4932616;29;20457;-77
2023/06/07 11:53:20;;;;;;;16.80;15.00;;;22.60;78.80;;;;;;4954771;29;20406;-79
2023/06/07 11:55:46;;;;;;;18.37;16.57;;;22.50;81.50;;;;;;4924079;29;20170;-77
2023/06/07 11:58:12;;;;;;;14.97;13.37;;;22.50;81.80;;;;;;4944320;29;20421;-77
2023/06/07 12:00:41;;;;;;;18.40;15.67;;;22.50;82.20;;;;;;4960349;29;20407;-77
2023/06/07 12:03:10;;;;;;;17.37;15.67;;;22.80;79.50;;;;;;4959582;29;20440;-77
2023/06/07 12:05:37;;;;;;;19.33;17.43;;;22.90;78.70;;;;;;4975716;29;20840;-77
2023/06/07 12:08:15;;;;;;;16.73;15.13;;;23.00;76.00;;;;;;4941682;29;20989;-79
2023/06/07 12:10:41;;;;;;;14.30;12.80;;;23.10;75.80;;;;;;4958082;29;20830;-77
2023/06/07 12:13:15;;;;;;;18.27;16.27;;;23.00;76.50;;;;;;4977035;29;20808;-78
2023/06/07 12:15:58;;;;;;;13.23;12.03;;;22.90;76.30;;;;;;4960954;29;20401;-78
2023/06/07 12:18:28;;;;;;;17.63;16.03;;;22.90;76.60;;;;;;4964134;28;20448;-77
2023/06/07 12:21:08;;;;;;;19.67;16.53;;;23.00;77.20;;;;;;4978841;28;20435;-78
2023/06/07 12:23:36;;;;;;;17.03;15.27;;;23.10;76.20;;;;;;4957783;29;20841;-78
2023/06/07 12:26:14;;;;;;;17.87;16.07;;;23.10;75.00;;;;;;4954837;29;20448;-78
2023/06/07 12:28:42;;;;;;;18.17;16.37;;;23.00;75.00;;;;;;4933807;29;20429;-77
2023/06/07 12:31:23;;;;;;;18.07;16.30;;;22.70;77.70;;;;;;4959482;29;20732;-77
2023/06/07 12:33:56;;;;;;;23.90;19.43;;;22.40;81.60;;;;;;4960864;29;20409;-78
2023/06/07 12:36:23;;;;;;;19.27;14.90;;;22.10;90.70;;;;;;4925738;29;20421;-79
2023/06/07 12:38:49;;;;;;;18.63;16.63;;;21.20;99.90;;;;;;4936687;29;20447;-78
2023/06/07 12:41:15;;;;;;;19.40;16.97;;;20.20;99.90;;;;;;4974677;29;20436;-76
2023/06/07 12:43:47;;;;;;;24.63;22.10;;;19.20;99.90;;;;;;4954779;29;20189;-78
2023/06/07 12:46:13;;;;;;;28.07;23.80;;;18.70;99.90;;;;;;4970883;29;20631;-78